createdAt,value
2018-06-02T00:00:27.636Z,3.83
2018-06-02T00:02:58.001Z,3.70
2018-06-02T00:05:35.252Z,3.70
2018-06-02T00:08:20.770Z,4.40
2018-06-02T00:10:49.842Z,3.90
2018-06-02T00:13:18.095Z,3.80
2018-06-02T00:15:53.318Z,3.70
2018-06-02T00:18:29.157Z,4.27
2018-06-02T00:20:57.567Z,3.67
2018-06-02T00:23:29.158Z,4.67
2018-06-02T00:26:02.857Z,3.93
2018-06-02T00:28:34.386Z,4.00
2018-06-02T00:31:06.211Z,4.10
2018-06-02T00:33:41.654Z,3.70
2018-06-02T00:36:13.664Z,3.63
2018-06-02T00:38:53.486Z,4.10
2018-06-02T00:41:27.251Z,4.27
2018-06-02T00:43:57.684Z,4.00
2018-06-02T00:46:37.940Z,4.37
2018-06-02T00:49:07.763Z,3.60
2018-06-02T00:51:40.439Z,4.13
2018-06-02T00:54:08.814Z,3.87
2018-06-02T00:56:38.464Z,4.77
2018-06-02T00:59:06.802Z,4.47
2018-06-02T01:01:36.523Z,4.87
2018-06-02T01:04:09.025Z,3.87
2018-06-02T01:06:38.541Z,3.70
2018-06-02T01:09:12.361Z,4.67
2018-06-02T01:11:47.318Z,3.50
2018-06-02T01:14:22.088Z,4.33
2018-06-02T01:16:50.653Z,3.97
2018-06-02T01:19:28.940Z,3.70
2018-06-02T01:21:58.264Z,3.80
2018-06-02T01:24:38.559Z,4.00
2018-06-02T01:27:07.138Z,3.90
2018-06-02T01:29:36.612Z,3.63
2018-06-02T01:32:10.704Z,4.13
2018-06-02T01:34:41.105Z,4.37
2018-06-02T01:37:13.492Z,3.83
2018-06-02T01:39:59.720Z,3.97
2018-06-02T01:42:28.176Z,4.10
2018-06-02T01:45:02.916Z,3.93
2018-06-02T01:47:38.803Z,3.70
2018-06-02T01:50:20.124Z,3.60
2018-06-02T01:52:48.872Z,4.40
2018-06-02T01:55:25.071Z,3.63
2018-06-02T01:57:59.175Z,4.40
2018-06-02T02:00:41.309Z,4.07
2018-06-02T02:03:13.478Z,4.07
2018-06-02T02:05:56.596Z,3.63
2018-06-02T02:08:25.656Z,3.77
2018-06-02T02:10:55.991Z,3.30
2018-06-02T02:13:24.247Z,4.03
2018-06-02T02:16:01.065Z,3.13
2018-06-02T02:18:31.373Z,4.20
2018-06-02T02:21:14.516Z,3.37
2018-06-02T02:23:46.762Z,3.77
2018-06-02T02:26:15.150Z,3.90
2018-06-02T02:28:51.762Z,4.13
2018-06-02T02:31:23.896Z,4.10
2018-06-02T02:33:53.994Z,4.07
2018-06-02T02:36:27.185Z,3.97
2018-06-02T02:38:57.565Z,4.00
2018-06-02T02:41:29.371Z,4.07
2018-06-02T02:44:10.475Z,3.63
2018-06-02T02:46:46.703Z,3.90
2018-06-02T02:49:18.688Z,3.47
2018-06-02T02:51:59.728Z,4.03
2018-06-02T02:54:35.375Z,4.17
2018-06-02T02:57:03.683Z,3.93
2018-06-02T02:59:31.954Z,4.03
2018-06-02T03:02:00.329Z,3.87
2018-06-02T03:04:35.053Z,3.63
2018-06-02T03:07:04.415Z,4.10
2018-06-02T03:09:36.858Z,4.23
2018-06-02T03:12:05.163Z,4.07
2018-06-02T03:14:34.460Z,4.10
2018-06-02T03:17:08.724Z,4.00
2018-06-02T03:19:42.751Z,4.23
2018-06-02T03:22:11.145Z,4.67
2018-06-02T03:24:40.211Z,4.10
2018-06-02T03:27:12.196Z,3.70
2018-06-02T03:29:40.501Z,4.07
2018-06-02T03:32:12.712Z,4.00
2018-06-02T03:34:41.012Z,4.47
2018-06-02T03:37:10.099Z,4.70
2018-06-02T03:39:38.362Z,4.80
2018-06-02T03:42:06.793Z,4.77
2018-06-02T03:44:35.123Z,4.30
2018-06-02T03:47:03.590Z,4.70
2018-06-02T03:49:32.159Z,4.23
2018-06-02T03:52:00.440Z,4.90
2018-06-02T03:54:28.769Z,4.90
2018-06-02T03:56:57.227Z,4.57
2018-06-02T03:59:25.737Z,4.40
2018-06-02T04:01:55.251Z,4.20
2018-06-02T04:04:23.596Z,4.53
2018-06-02T04:06:53.407Z,3.83
2018-06-02T04:09:22.816Z,4.10
2018-06-02T04:11:51.347Z,4.13
2018-06-02T04:14:25.982Z,4.70
2018-06-02T04:17:10.614Z,4.60
2018-06-02T04:19:53.131Z,4.57
2018-06-02T04:22:22.410Z,4.57
2018-06-02T04:25:08.595Z,3.83
2018-06-02T04:27:41.991Z,3.60
2018-06-02T04:30:19.033Z,4.23
2018-06-02T04:33:06.412Z,3.80
2018-06-02T04:35:53.309Z,4.10
2018-06-02T04:38:33.326Z,4.10
2018-06-02T04:41:12.229Z,4.00
2018-06-02T04:43:47.244Z,4.10
2018-06-02T04:46:16.499Z,3.83
2018-06-02T04:48:49.205Z,3.97
2018-06-02T04:51:25.851Z,4.00
2018-06-02T04:53:54.149Z,4.23
2018-06-02T04:56:31.685Z,3.87
2018-06-02T04:59:00.083Z,3.50
2018-06-02T05:01:35.139Z,3.87
2018-06-02T05:04:03.430Z,4.30
2018-06-02T05:06:32.651Z,4.03
2018-06-02T05:09:00.933Z,4.10
2018-06-02T05:11:33.983Z,3.80
2018-06-02T05:14:02.310Z,4.13
2018-06-02T05:16:30.718Z,3.87
2018-06-02T05:18:59.026Z,4.40
2018-06-02T05:21:28.322Z,4.67
2018-06-02T05:23:56.687Z,3.73
2018-06-02T05:26:24.994Z,3.87
2018-06-02T05:28:54.063Z,4.80
2018-06-02T05:31:22.499Z,4.20
2018-06-02T05:33:50.827Z,4.10
2018-06-02T05:36:19.101Z,3.60
2018-06-02T05:38:47.456Z,3.10
2018-06-02T05:41:15.756Z,3.23
2018-06-02T05:43:45.055Z,3.67
2018-06-02T05:46:14.340Z,5.10
2018-06-02T05:48:44.571Z,6.13
2018-06-02T05:51:22.782Z,12.77
2018-06-02T05:53:52.303Z,3.30
2018-06-02T05:56:20.807Z,3.00
2018-06-02T05:58:51.834Z,3.43
2018-06-02T06:01:40.106Z,3.23
2018-06-02T06:04:10.434Z,3.40
2018-06-02T06:06:44.809Z,6.20
2018-06-02T06:09:13.063Z,3.20
2018-06-02T06:11:47.280Z,3.00
2018-06-02T06:14:20.276Z,2.60
2018-06-02T06:16:58.940Z,3.83
2018-06-02T06:19:28.021Z,3.03
2018-06-02T06:21:58.439Z,2.80
2018-06-02T06:24:26.735Z,3.45
2018-06-02T06:26:55.806Z,3.05
2018-06-02T06:29:24.210Z,2.95
2018-06-02T06:31:52.481Z,2.92
2018-06-02T06:34:21.636Z,3.05
2018-06-02T06:36:49.941Z,2.95
2018-06-02T06:39:19.362Z,3.00
2018-06-02T06:41:56.739Z,2.53
2018-06-02T06:44:25.911Z,2.85
2018-06-02T06:47:08.010Z,2.42
2018-06-02T06:49:44.995Z,3.35
2018-06-02T06:52:22.040Z,2.60
2018-06-02T06:54:50.387Z,2.62
2018-06-02T06:57:23.271Z,2.78
2018-06-02T06:59:57.977Z,2.45
2018-06-02T07:02:33.808Z,2.78
2018-06-02T07:05:02.131Z,2.40
2018-06-02T07:07:58.174Z,2.70
2018-06-02T07:10:34.006Z,2.97
2018-06-02T07:13:08.763Z,2.37
2018-06-02T07:15:38.015Z,3.00
2018-06-02T07:18:08.032Z,2.72
2018-06-02T07:20:43.965Z,2.78
2018-06-02T07:23:14.195Z,2.83
2018-06-02T07:25:46.388Z,2.50
2018-06-02T07:28:16.366Z,2.90
2018-06-02T07:30:44.859Z,2.85
2018-06-02T07:33:26.923Z,2.78
2018-06-02T07:35:56.149Z,2.87
2018-06-02T07:38:24.604Z,2.80
2018-06-02T07:40:54.676Z,2.70
2018-06-02T07:43:22.927Z,2.95
2018-06-02T07:45:51.198Z,2.53
2018-06-02T07:48:25.375Z,3.22
2018-06-02T07:50:53.618Z,2.60
2018-06-02T07:53:21.864Z,2.85
2018-06-02T07:55:52.166Z,2.87
2018-06-02T07:58:28.959Z,3.00
2018-06-02T08:01:15.740Z,2.40
2018-06-02T08:03:45.154Z,2.75
2018-06-02T08:06:14.254Z,2.60
2018-06-02T08:08:53.833Z,3.22
2018-06-02T08:11:26.798Z,2.60
2018-06-02T08:13:57.061Z,2.50
2018-06-02T08:16:31.968Z,3.30
2018-06-02T08:19:06.076Z,2.78
2018-06-02T08:21:42.838Z,3.00
2018-06-02T08:24:11.159Z,2.90
2018-06-02T08:26:41.553Z,2.40
2018-06-02T08:29:17.549Z,2.42
2018-06-02T08:31:47.643Z,2.70
2018-06-02T08:34:19.302Z,2.90
2018-06-02T08:36:50.982Z,2.60
2018-06-02T08:39:22.098Z,2.80
2018-06-02T08:41:50.502Z,2.50
2018-06-02T08:44:24.457Z,2.93
2018-06-02T08:47:05.420Z,2.53
2018-06-02T08:49:45.397Z,2.60
2018-06-02T08:52:13.728Z,2.80
2018-06-02T08:54:44.878Z,2.30
2018-06-02T08:57:14.853Z,2.37
2018-06-02T08:59:45.179Z,2.70
2018-06-02T09:02:19.320Z,2.20
2018-06-02T09:04:50.484Z,2.40
2018-06-02T09:07:28.733Z,2.42
2018-06-02T09:10:03.478Z,1.90
2018-06-02T09:12:35.479Z,1.75
2018-06-02T09:15:06.967Z,1.92
2018-06-02T09:17:40.998Z,1.60
2018-06-02T09:20:14.991Z,1.98
2018-06-02T09:22:43.857Z,1.50
2018-06-02T09:25:12.254Z,1.33
2018-06-02T09:27:49.001Z,1.58
2018-06-02T09:30:20.538Z,1.65
2018-06-02T09:32:55.501Z,1.45
2018-06-02T09:38:10.037Z,1.30
2018-06-02T09:40:40.379Z,1.45
2018-06-02T09:43:14.663Z,2.20
2018-06-02T09:45:51.026Z,1.75
2018-06-02T09:48:24.025Z,1.62
2018-06-02T09:50:52.537Z,1.65
2018-06-02T09:53:22.987Z,1.50
2018-06-02T09:55:51.343Z,1.55
2018-06-02T09:58:20.770Z,1.62
2018-06-02T10:00:51.794Z,1.50
2018-06-02T10:03:24.012Z,1.62
2018-06-02T10:05:55.927Z,1.70
2018-06-02T10:08:31.209Z,1.60
2018-06-02T10:10:59.487Z,1.52
2018-06-02T10:13:28.576Z,1.50
2018-06-02T10:15:57.897Z,1.37
2018-06-02T10:18:27.178Z,1.30
2018-06-02T10:20:55.434Z,1.70
2018-06-02T10:23:35.283Z,1.75
2018-06-02T10:26:03.596Z,1.98
2018-06-02T10:28:35.480Z,1.83
2018-06-02T10:31:08.304Z,1.62
2018-06-02T10:33:42.883Z,1.55
2018-06-02T10:36:35.084Z,1.77
2018-06-02T10:39:04.506Z,2.17
2018-06-02T10:41:32.778Z,2.60
2018-06-02T10:44:01.077Z,1.95
2018-06-02T10:46:30.314Z,1.50
2018-06-02T10:49:03.339Z,1.40
2018-06-02T10:51:31.650Z,2.17
2018-06-02T10:54:09.620Z,1.08
2018-06-02T10:56:49.315Z,2.35
2018-06-02T10:59:19.592Z,1.90
2018-06-02T11:01:50.623Z,2.25
2018-06-02T11:04:37.084Z,8.52
2018-06-02T11:07:07.428Z,2.42
2018-06-02T11:09:35.764Z,2.42
2018-06-02T11:12:17.246Z,1.98
2018-06-02T11:14:49.671Z,1.85
2018-06-02T11:17:25.945Z,1.77
2018-06-02T11:19:55.237Z,1.50
2018-06-02T11:22:34.619Z,1.70
2018-06-02T11:25:10.508Z,1.37
2018-06-02T11:27:46.607Z,1.30
2018-06-02T11:30:19.731Z,1.50
2018-06-02T11:32:50.198Z,1.40
2018-06-02T11:35:20.383Z,1.00
2018-06-02T11:37:59.383Z,0.90
2018-06-02T11:40:35.535Z,1.02
2018-06-02T11:43:03.870Z,0.80
2018-06-02T11:45:34.329Z,0.98
2018-06-02T11:48:08.648Z,1.10
2018-06-02T11:50:40.728Z,1.10
2018-06-02T11:53:09.025Z,1.00
2018-06-02T11:55:39.430Z,1.10
2018-06-02T11:58:07.715Z,1.00
2018-06-02T12:00:35.993Z,1.05
2018-06-02T12:03:07.998Z,1.23
2018-06-02T12:05:36.526Z,0.80
2018-06-02T12:08:05.369Z,1.23
2018-06-02T12:10:37.474Z,1.02
2018-06-02T12:13:08.010Z,0.95
2018-06-02T12:15:39.244Z,1.08
2018-06-02T12:18:08.456Z,1.00
2018-06-02T12:20:37.205Z,1.27
2018-06-02T12:23:16.008Z,1.20
2018-06-02T12:25:48.045Z,1.40
2018-06-02T12:28:17.199Z,1.52
2018-06-02T12:30:46.238Z,1.52
2018-06-02T12:33:26.788Z,1.10
2018-06-02T12:35:55.054Z,1.08
2018-06-02T12:38:24.353Z,1.35
2018-06-02T12:40:53.726Z,1.40
2018-06-02T12:43:23.179Z,1.30
2018-06-02T12:45:52.330Z,1.10
2018-06-02T12:48:24.842Z,1.20
2018-06-02T12:50:54.222Z,1.92
2018-06-02T12:53:26.447Z,1.10
2018-06-02T12:55:56.406Z,1.17
2018-06-02T12:58:28.229Z,1.20
2018-06-02T13:00:56.563Z,1.60
2018-06-02T13:03:30.579Z,1.62
2018-06-02T13:05:59.860Z,1.20
2018-06-02T13:08:30.104Z,1.30
2018-06-02T13:10:58.388Z,1.20
2018-06-02T13:13:33.988Z,1.92
2018-06-02T13:16:02.380Z,1.58
2018-06-02T13:18:39.424Z,1.62
2018-06-02T13:21:08.829Z,1.50
2018-06-02T13:23:38.578Z,1.48
2018-06-02T13:26:06.926Z,1.12
2018-06-02T13:28:35.284Z,1.37
2018-06-02T13:31:07.709Z,1.33
2018-06-02T13:33:36.571Z,1.42
2018-06-02T13:36:05.277Z,1.37
2018-06-02T13:38:33.581Z,1.33
2018-06-02T13:41:05.644Z,1.45
2018-06-02T13:43:33.971Z,1.15
2018-06-02T13:46:06.221Z,1.50
2018-06-02T13:48:35.311Z,1.27
2018-06-02T13:51:04.407Z,1.35
2018-06-02T13:53:34.172Z,1.40
2018-06-02T13:56:02.544Z,1.60
2018-06-02T13:58:30.850Z,1.65
2018-06-02T14:01:00.143Z,1.50
2018-06-02T14:03:31.536Z,1.40
2018-06-02T14:05:59.951Z,1.15
2018-06-02T14:08:31.057Z,1.30
2018-06-02T14:11:00.075Z,1.33
2018-06-02T14:13:29.314Z,1.40
2018-06-02T14:15:58.630Z,1.25
2018-06-02T14:18:26.968Z,1.20
2018-06-02T14:20:55.605Z,1.33
2018-06-02T14:23:24.784Z,1.25
2018-06-02T14:25:53.293Z,1.10
2018-06-02T14:28:32.341Z,1.40
2018-06-02T14:31:11.895Z,1.25
2018-06-02T14:33:44.059Z,1.37
2018-06-02T14:36:14.281Z,1.27
2018-06-02T14:38:43.605Z,1.30
2018-06-02T14:41:16.106Z,1.33
2018-06-02T14:43:45.486Z,1.17
2018-06-02T14:46:14.593Z,1.50
2018-06-02T14:48:42.891Z,1.50
2018-06-02T14:51:16.480Z,1.48
2018-06-02T14:53:50.555Z,1.50
2018-06-02T14:56:18.970Z,1.35
2018-06-02T14:58:55.723Z,1.58
2018-06-02T15:01:30.543Z,1.33
2018-06-02T15:04:13.125Z,1.58
2018-06-02T15:06:43.523Z,1.52
2018-06-02T15:09:12.449Z,1.40
2018-06-02T15:11:41.727Z,1.80
2018-06-02T15:14:11.973Z,1.70
2018-06-02T15:16:53.278Z,1.35
2018-06-02T15:19:22.766Z,1.10
2018-06-02T15:21:54.679Z,1.33
2018-06-02T15:24:24.104Z,1.30
2018-06-02T15:26:58.384Z,1.40
2018-06-02T15:29:30.223Z,1.62
2018-06-02T15:32:02.118Z,1.33
2018-06-02T15:34:31.435Z,1.30
2018-06-02T15:37:01.395Z,1.52
2018-06-02T15:39:29.767Z,2.05
2018-06-02T15:42:08.812Z,1.80
2018-06-02T15:44:37.120Z,2.60
2018-06-02T15:47:10.700Z,1.55
2018-06-02T15:49:47.380Z,1.45
2018-06-02T15:52:17.074Z,1.60
2018-06-02T15:54:46.390Z,2.00
2018-06-02T15:57:15.724Z,1.70
2018-06-02T15:59:44.804Z,1.58
2018-06-02T16:02:13.045Z,2.45
2018-06-02T16:04:42.470Z,1.62
2018-06-02T16:07:14.331Z,1.33
2018-06-02T16:09:42.759Z,1.05
2018-06-02T16:12:12.979Z,1.60
2018-06-02T16:14:45.029Z,1.25
2018-06-02T16:17:13.404Z,1.25
2018-06-02T16:19:42.487Z,1.60
2018-06-02T16:22:14.389Z,1.48
2018-06-02T16:24:54.751Z,1.50
2018-06-02T16:27:23.125Z,1.50
2018-06-02T16:29:54.683Z,1.37
2018-06-02T16:32:23.003Z,1.90
2018-06-02T16:34:51.428Z,2.87
2018-06-02T16:37:23.031Z,2.90
2018-06-02T16:39:51.307Z,1.80
2018-06-02T16:42:21.658Z,1.35
2018-06-02T16:44:50.855Z,1.37
2018-06-02T16:47:26.601Z,1.73
2018-06-02T16:49:55.863Z,1.75
2018-06-02T16:52:24.316Z,1.83
2018-06-02T16:54:57.162Z,1.87
2018-06-02T16:57:26.443Z,1.52
2018-06-02T17:00:02.192Z,1.55
2018-06-02T17:02:30.471Z,1.83
2018-06-02T17:05:04.710Z,1.80
2018-06-02T17:07:34.189Z,1.35
2018-06-02T17:10:08.181Z,1.77
2018-06-02T17:12:40.163Z,1.77
2018-06-02T17:15:10.407Z,1.55
2018-06-02T17:17:38.790Z,1.48
2018-06-02T17:20:08.895Z,1.40
2018-06-02T17:22:39.841Z,1.52
2018-06-02T17:25:15.648Z,1.65
2018-06-02T17:27:52.445Z,1.98
2018-06-02T17:30:24.683Z,1.80
2018-06-02T17:32:56.188Z,1.30
2018-06-02T17:35:33.685Z,1.40
2018-06-02T17:38:07.884Z,2.07
2018-06-02T17:40:39.937Z,1.65
2018-06-02T17:43:08.264Z,2.05
2018-06-02T17:45:38.396Z,1.62
2018-06-02T17:48:06.741Z,2.03
2018-06-02T17:50:41.131Z,2.05
2018-06-02T17:53:12.732Z,2.03
2018-06-02T17:55:43.198Z,1.90
2018-06-02T17:58:16.611Z,1.87
2018-06-02T18:01:01.951Z,1.60
2018-06-02T18:03:40.012Z,4.33
2018-06-02T18:06:16.591Z,8.10
2018-06-02T18:08:50.551Z,4.00
2018-06-02T18:11:18.873Z,3.03
2018-06-02T18:13:47.124Z,2.80
2018-06-02T18:16:15.426Z,2.90
2018-06-02T18:18:44.727Z,2.93
2018-06-02T18:21:13.244Z,3.23
2018-06-02T18:23:43.340Z,2.67
2018-06-02T18:26:12.420Z,2.60
2018-06-02T18:28:43.274Z,2.30
2018-06-02T18:31:17.907Z,2.23
2018-06-02T18:33:54.915Z,1.97
2018-06-02T18:36:30.699Z,2.20
2018-06-02T18:38:59.077Z,2.70
2018-06-02T18:41:28.448Z,2.73
2018-06-02T18:44:00.005Z,2.40
2018-06-02T18:46:30.307Z,2.33
2018-06-02T18:49:00.170Z,2.63
2018-06-02T18:51:33.479Z,2.10
2018-06-02T18:54:01.916Z,2.70
2018-06-02T18:56:37.976Z,2.80
2018-06-02T18:59:08.527Z,2.10
2018-06-02T19:01:39.062Z,2.37
2018-06-02T19:04:07.453Z,3.23
2018-06-02T19:06:40.149Z,3.60
2018-06-02T19:09:08.405Z,3.07
2018-06-02T19:11:40.878Z,2.63
2018-06-02T19:14:09.348Z,2.87
2018-06-02T19:16:42.521Z,2.60
2018-06-02T19:19:11.759Z,2.30
2018-06-02T19:21:50.932Z,2.13
2018-06-02T19:24:24.018Z,2.50
2018-06-02T19:26:57.656Z,2.00
2018-06-02T19:29:33.375Z,2.20
2018-06-02T19:32:04.377Z,2.30
2018-06-02T19:34:36.252Z,2.70
2018-06-02T19:37:05.529Z,2.60
2018-06-02T19:39:33.887Z,2.20
2018-06-02T19:42:03.274Z,2.70
2018-06-02T19:44:42.816Z,2.50
2018-06-02T19:47:16.065Z,2.20
2018-06-02T19:49:46.380Z,1.97
2018-06-02T19:52:18.461Z,2.60
2018-06-02T19:54:48.464Z,2.10
2018-06-02T19:57:16.808Z,2.10
2018-06-02T19:59:45.114Z,2.90
2018-06-02T20:02:19.000Z,2.33
2018-06-02T20:04:52.125Z,1.97
2018-06-02T20:07:22.525Z,1.90
2018-06-02T20:09:55.842Z,2.33
2018-06-02T20:12:35.397Z,2.57
2018-06-02T20:15:18.957Z,2.40
2018-06-02T20:17:50.336Z,2.83
2018-06-02T20:21:03.879Z,3.50
2018-06-02T20:23:36.547Z,3.43
2018-06-02T20:26:13.867Z,4.07
2018-06-02T20:28:58.263Z,4.00
2018-06-02T20:31:32.796Z,5.40
2018-06-02T20:34:07.619Z,25.63
2018-06-02T20:36:43.778Z,36.33
2018-06-02T20:39:19.540Z,38.10
2018-06-02T20:41:54.182Z,23.70
2018-06-02T20:44:26.233Z,11.17
2018-06-02T20:46:56.971Z,33.37
2018-06-02T20:49:28.372Z,20.77
2018-06-02T20:52:03.247Z,9.17
2018-06-02T20:54:44.280Z,5.00
2018-06-02T20:57:16.087Z,3.53
2018-06-02T20:59:46.848Z,3.60
2018-06-02T21:02:24.385Z,4.13
2018-06-02T21:04:58.103Z,2.27
2018-06-02T21:07:31.233Z,2.97
2018-06-02T21:10:20.767Z,3.17
2018-06-02T21:12:54.999Z,3.00
2018-06-02T21:15:26.584Z,3.23
2018-06-02T21:18:11.390Z,3.40
2018-06-02T21:20:42.376Z,2.80
2018-06-02T21:23:20.382Z,3.17
2018-06-02T21:25:51.699Z,2.60
2018-06-02T21:28:23.364Z,3.00
2018-06-02T21:30:54.903Z,3.67
2018-06-02T21:33:27.517Z,3.37
2018-06-02T21:35:58.984Z,2.83
2018-06-02T21:38:31.040Z,3.90
2018-06-02T21:41:05.091Z,3.23
2018-06-02T21:43:35.552Z,2.83
2018-06-02T21:46:11.141Z,3.10
2018-06-02T21:48:42.274Z,2.90
2018-06-02T21:51:13.431Z,2.97
2018-06-02T21:53:43.501Z,2.90
2018-06-02T21:56:13.942Z,3.00
2018-06-02T21:58:45.403Z,2.73
2018-06-02T22:01:22.314Z,2.70
2018-06-02T22:03:57.803Z,2.87
2018-06-02T22:06:35.624Z,2.50
2018-06-02T22:09:11.042Z,2.73
2018-06-02T22:11:43.051Z,2.80
2018-06-02T22:14:26.841Z,2.90
2018-06-02T22:16:59.367Z,3.33
2018-06-02T22:19:47.879Z,3.20
2018-06-02T22:22:20.931Z,2.93
2018-06-02T22:25:07.223Z,2.73
2018-06-02T22:27:42.804Z,3.33
2018-06-02T22:30:14.499Z,2.90
2018-06-02T22:33:09.248Z,2.90
2018-06-02T22:35:49.960Z,3.40
2018-06-02T22:38:21.152Z,2.90
2018-06-02T22:40:55.627Z,3.10
2018-06-02T22:43:26.652Z,3.70
2018-06-02T22:46:07.441Z,3.73
2018-06-02T22:48:37.937Z,2.93
2018-06-02T22:51:10.940Z,2.83
2018-06-02T22:53:49.385Z,3.27
2018-06-02T22:56:20.441Z,2.93
2018-06-02T22:58:52.206Z,3.80
2018-06-02T23:01:22.890Z,2.87
2018-06-02T23:03:53.839Z,3.07
2018-06-02T23:06:26.410Z,3.00
2018-06-02T23:09:01.106Z,3.03
2018-06-02T23:11:31.778Z,2.90
2018-06-02T23:14:08.423Z,3.10
2018-06-02T23:16:51.328Z,3.50
2018-06-02T23:19:26.166Z,3.17
2018-06-02T23:21:56.801Z,3.40
2018-06-02T23:24:31.105Z,3.70
2018-06-02T23:27:06.182Z,2.70
2018-06-02T23:29:41.039Z,3.33
2018-06-02T23:32:12.846Z,3.03
2018-06-02T23:34:44.967Z,3.30
2018-06-02T23:37:15.010Z,3.00
2018-06-02T23:39:45.105Z,3.20
2018-06-02T23:42:15.219Z,3.20
2018-06-02T23:44:45.260Z,3.30
2018-06-02T23:47:31.105Z,3.07
2018-06-02T23:50:03.162Z,3.67
2018-06-02T23:52:38.000Z,3.50
2018-06-02T23:55:09.043Z,3.37
2018-06-02T23:57:47.339Z,3.10
